Time;durP1;ratioP1;P1;durP2;ratioP2;P2;SDS_P1;SDS_P2;PMS_P1;PMS_P2;Temp;Humidity;BMP_temperature;BMP_pressure;BME280_temperature;BME280_humidity;BME280_pressure;Samples;Min_cycle;Max_cycle;Signal;HPM_P1;HPM_P2
2021/04/06 04:13:25;;;;;;;27.60;2.42;;;-1.10;94.80;;;;;;5091351;28;20048;-67
2021/04/06 04:15:51;;;;;;;22.85;2.42;;;-1.10;95.00;;;;;;5091988;28;20039;-67
2021/04/06 04:18:17;;;;;;;20.83;2.15;;;-1.20;95.30;;;;;;5092137;28;20021;-67
2021/04/06 04:20:43;;;;;;;36.90;2.47;;;-1.40;96.30;;;;;;5092223;28;20113;-67
2021/04/06 04:23:09;;;;;;;28.95;2.30;;;-1.40;95.70;;;;;;5092020;28;20599;-66
2021/04/06 04:25:35;;;;;;;16.50;2.05;;;-1.30;95.10;;;;;;5092000;28;20383;-67
2021/04/06 04:28:01;;;;;;;16.40;1.77;;;-1.20;95.60;;;;;;5091885;28;20020;-67
2021/04/06 04:30:41;;;;;;;11.75;1.73;;;-1.00;95.70;;;;;;5091873;28;20020;-67
2021/04/06 04:33:08;;;;;;;18.67;1.75;;;-0.90;94.50;;;;;;5091864;28;20039;-67
2021/04/06 04:35:36;;;;;;;22.33;1.92;;;-0.80;94.00;;;;;;5092200;28;20403;-66
2021/04/06 04:38:02;;;;;;;18.88;3.35;;;-0.60;99.90;;;;;;5091723;28;20471;-66
2021/04/06 04:40:29;;;;;;;34.22;2.42;;;-0.10;99.90;;;;;;5091832;28;20064;-66
2021/04/06 04:42:55;;;;;;;17.02;2.03;;;0.10;95.80;;;;;;5091242;28;20034;-65
2021/04/06 04:45:22;;;;;;;24.23;2.15;;;0.10;93.80;;;;;;5091914;28;20498;-64
2021/04/06 04:47:48;;;;;;;29.23;2.30;;;0.30;92.30;;;;;;5091724;28;20024;-65
2021/04/06 04:50:14;;;;;;;15.00;1.70;;;0.70;90.90;;;;;;5091952;28;20117;-66
2021/04/06 04:52:44;;;;;;;17.58;2.10;;;1.10;89.80;;;;;;5091861;28;20081;-65
2021/04/06 04:55:14;;;;;;;4.68;1.38;;;1.40;86.30;;;;;;5091880;28;20032;-64
2021/04/06 04:57:40;;;;;;;23.13;1.95;;;1.70;84.50;;;;;;5091824;28;20515;-66
2021/04/06 05:00:06;;;;;;;9.35;1.38;;;2.10;82.30;;;;;;5091731;28;20031;-66
2021/04/06 05:02:32;;;;;;;12.20;1.88;;;2.50;80.60;;;;;;5094678;28;20043;-66
2021/04/06 05:04:58;;;;;;;10.13;1.88;;;2.80;78.90;;;;;;5095962;28;20028;-65
2021/04/06 05:07:24;;;;;;;13.18;1.40;;;3.10;77.40;;;;;;5095974;28;20032;-67
2021/04/06 05:09:50;;;;;;;13.55;2.00;;;3.50;77.00;;;;;;5095701;28;20024;-67
2021/04/06 05:12:17;;;;;;;12.27;1.52;;;3.80;74.70;;;;;;5095540;28;20431;-67
2021/04/06 05:14:44;;;;;;;19.50;1.70;;;4.10;75.00;;;;;;5095340;28;20071;-67
2021/04/06 05:17:10;;;;;;;24.02;1.23;;;4.40;74.60;;;;;;5095777;28;20425;-67
2021/04/06 05:19:36;;;;;;;15.07;1.25;;;4.50;72.10;;;;;;5095544;28;20104;-67
2021/04/06 05:22:01;;;;;;;19.88;2.28;;;5.30;94.30;;;;;;5095405;28;20040;-66
2021/04/06 05:24:27;;;;;;;15.68;1.75;;;6.30;72.80;;;;;;5095265;28;20056;-66
2021/04/06 05:26:53;;;;;;;30.42;1.73;;;6.40;67.50;;;;;;5095169;28;20028;-66
2021/04/06 05:29:18;;;;;;;9.23;1.20;;;6.50;65.70;;;;;;5095200;28;20524;-66
2021/04/06 05:31:44;;;;;;;27.33;1.90;;;6.40;64.70;;;;;;5095327;28;20024;-66
2021/04/06 05:34:10;;;;;;;14.52;1.05;;;6.40;64.10;;;;;;5096202;28;20035;-66
2021/04/06 05:36:35;;;;;;;23.00;1.52;;;6.50;63.80;;;;;;5095895;28;20066;-66
2021/04/06 05:39:01;;;;;;;19.48;2.05;;;6.60;62.80;;;;;;5094832;28;20028;-66
2021/04/06 05:41:27;;;;;;;16.75;1.25;;;6.70;62.50;;;;;;5095029;28;20037;-66
2021/04/06 05:44:00;;;;;;;10.38;0.90;;;6.80;62.30;;;;;;5095055;28;20487;-66
2021/04/06 05:46:34;;;;;;;8.35;1.40;;;7.00;61.30;;;;;;5094745;28;20099;-66
2021/04/06 05:49:05;;;;;;;15.45;1.33;;;7.10;60.50;;;;;;5094617;28;20032;-72
2021/04/06 05:51:31;;;;;;;12.05;1.92;;;7.20;62.20;;;;;;5094530;28;20114;-72
2021/04/06 05:53:57;;;;;;;13.48;1.42;;;7.30;60.00;;;;;;5094784;28;20108;-67
2021/04/06 05:56:23;;;;;;;15.13;2.25;;;7.50;59.90;;;;;;5094515;28;20063;-66
2021/04/06 05:58:49;;;;;;;10.70;1.13;;;7.70;59.30;;;;;;5094581;28;20024;-66
2021/04/06 06:01:16;;;;;;;4.90;1.40;;;7.90;58.80;;;;;;5094651;28;20024;-67
2021/04/06 06:03:42;;;;;;;14.38;1.23;;;8.00;58.60;;;;;;5094780;28;20446;-74
2021/04/06 06:06:08;;;;;;;4.88;1.00;;;8.20;58.50;;;;;;5094525;28;20055;-67
2021/04/06 06:08:35;;;;;;;1.55;0.80;;;8.30;57.80;;;;;;5094505;28;20480;-67
2021/04/06 06:11:06;;;;;;;11.20;1.67;;;9.10;70.50;;;;;;5094177;28;20020;-68
2021/04/06 06:13:35;;;;;;;3.75;1.73;;;9.90;58.50;;;;;;5093150;28;20512;-68
2021/04/06 06:16:20;;;;;;;6.53;1.10;;;9.60;56.00;;;;;;5094386;28;20379;-68
2021/04/06 06:19:07;;;;;;;4.53;1.15;;;9.20;55.70;;;;;;5094531;28;20024;-68
2021/04/06 06:21:51;;;;;;;10.70;1.70;;;9.00;55.60;;;;;;5094224;28;20028;-68
2021/04/06 06:24:24;;;;;;;8.30;1.48;;;8.90;56.20;;;;;;5094476;28;20030;-68
2021/04/06 06:26:51;;;;;;;20.63;1.50;;;8.80;55.80;;;;;;5094406;28;20027;-68
2021/04/06 06:29:20;;;;;;;6.40;1.13;;;8.70;55.90;;;;;;5094198;28;20024;-68
2021/04/06 06:31:56;;;;;;;9.85;1.08;;;8.60;56.10;;;;;;5094338;28;20044;-68
2021/04/06 06:34:38;;;;;;;13.90;1.17;;;8.60;56.10;;;;;;5093892;28;20020;-68
2021/04/06 06:37:16;;;;;;;9.70;1.00;;;8.60;57.00;;;;;;5094057;28;20103;-68
2021/04/06 06:40:00;;;;;;;9.73;1.00;;;10.00;63.20;;;;;;5093970;28;20024;-68
2021/04/06 06:42:45;;;;;;;6.45;0.93;;;9.90;55.40;;;;;;5091802;28;20046;-68
2021/04/06 06:45:26;;;;;;;8.40;2.08;;;9.50;55.20;;;;;;5093609;28;20164;-68
2021/04/06 06:47:56;;;;;;;11.32;1.33;;;9.30;57.10;;;;;;5093377;28;20169;-68
2021/04/06 06:50:22;;;;;;;6.90;1.10;;;9.60;57.90;;;;;;5093526;28;20044;-68
2021/04/06 06:52:53;;;;;;;6.80;1.30;;;9.40;55.30;;;;;;5093634;28;20060;-68
2021/04/06 06:55:21;;;;;;;10.48;1.20;;;9.20;55.10;;;;;;5093568;28;20031;-68
2021/04/06 06:57:48;;;;;;;12.10;1.30;;;9.10;55.10;;;;;;5093559;28;20020;-68
2021/04/06 07:00:21;;;;;;;4.22;1.05;;;8.90;54.90;;;;;;5093567;28;20032;-68
2021/04/06 07:02:47;;;;;;;4.95;1.10;;;8.70;54.80;;;;;;5093331;28;20545;-68
2021/04/06 07:05:13;;;;;;;5.40;1.85;;;8.50;55.10;;;;;;5093504;28;20077;-68
2021/04/06 07:07:55;;;;;;;3.22;1.00;;;8.30;55.30;;;;;;5093616;28;20068;-67
2021/04/06 07:10:27;;;;;;;13.90;1.23;;;8.20;55.10;;;;;;5077432;28;20468;-67
2021/04/06 07:13:03;;;;;;;5.10;1.40;;;9.00;68.40;;;;;;5072822;28;20174;-67
2021/04/06 07:15:30;;;;;;;5.05;1.08;;;9.20;56.20;;;;;;5072974;28;20395;-65
2021/04/06 07:18:00;;;;;;;4.63;0.85;;;9.00;55.00;;;;;;5072785;28;20078;-65
2021/04/06 07:20:27;;;;;;;12.35;2.13;;;8.90;54.90;;;;;;5072691;28;20086;-65
2021/04/06 07:22:58;;;;;;;4.25;1.15;;;8.60;55.50;;;;;;5072910;28;20033;-66
2021/04/06 07:25:24;;;;;;;5.93;0.90;;;8.60;54.70;;;;;;5082729;28;20014;-65
2021/04/06 07:27:50;;;;;;;5.65;1.13;;;8.60;54.60;;;;;;5092664;28;20107;-65
2021/04/06 07:30:16;;;;;;;8.07;1.10;;;8.70;61.50;;;;;;5092832;28;20099;-65
2021/04/06 07:32:42;;;;;;;7.65;1.23;;;8.80;55.90;;;;;;5092831;28;20031;-64
2021/04/06 07:35:10;;;;;;;6.15;0.90;;;8.70;54.70;;;;;;5092538;28;20059;-65
2021/04/06 07:37:44;;;;;;;4.70;0.88;;;8.50;55.00;;;;;;5092968;28;20044;-65
2021/04/06 07:40:15;;;;;;;16.92;1.40;;;8.30;54.70;;;;;;5092472;28;20036;-65
2021/04/06 07:42:43;;;;;;;16.85;1.60;;;8.30;54.80;;;;;;5092600;28;20085;-65
2021/04/06 07:45:29;;;;;;;1.60;1.02;;;8.00;56.00;;;;;;5092447;28;20024;-65
2021/04/06 07:47:56;;;;;;;3.95;0.80;;;7.90;55.10;;;;;;5081739;28;20101;-65
2021/04/06 07:50:50;;;;;;;9.77;1.08;;;7.70;55.00;;;;;;5092434;28;20375;-65
2021/04/06 07:53:31;;;;;;;6.78;1.08;;;7.50;56.10;;;;;;5090321;28;20453;-65
2021/04/06 07:55:59;;;;;;;8.80;1.00;;;7.40;55.20;;;;;;5092736;28;20157;-65
2021/04/06 07:58:47;;;;;;;7.65;1.38;;;7.30;55.40;;;;;;5092779;28;20069;-65
2021/04/06 08:01:17;;;;;;;5.40;0.93;;;7.20;56.10;;;;;;5092413;28;20024;-66
2021/04/06 08:03:49;;;;;;;;;;;7.10;56.10;;;;;;5093074;28;20029;-66
2021/04/06 08:06:28;;;;;;;10.15;1.30;;;7.00;54.90;;;;;;5092098;28;20364;-66
2021/04/06 08:08:55;;;;;;;3.37;1.10;;;6.90;56.00;;;;;;5092216;28;20557;-66
2021/04/06 08:11:53;;;;;;;16.55;1.95;;;6.90;56.70;;;;;;5092262;28;20032;-65
2021/04/06 08:14:20;;;;;;;12.25;1.27;;;6.80;56.90;;;;;;5091665;28;20570;-66
2021/04/06 08:16:46;;;;;;;24.73;1.23;;;6.90;56.80;;;;;;5092132;28;20021;-66
2021/04/06 08:19:12;;;;;;;3.92;0.98;;;6.90;56.60;;;;;;5091995;28;20028;-65
2021/04/06 08:21:39;;;;;;;1.67;0.70;;;6.90;56.50;;;;;;5092172;28;20128;-66
2021/04/06 08:24:22;;;;;;;6.75;0.95;;;6.90;56.60;;;;;;5091894;28;20069;-66
2021/04/06 08:26:47;;;;;;;3.10;0.80;;;6.80;56.90;;;;;;5091972;28;20424;-66
2021/04/06 08:29:33;;;;;;;6.15;0.98;;;6.90;55.90;;;;;;5091962;28;20099;-65
2021/04/06 08:32:16;;;;;;;7.00;0.80;;;6.90;55.70;;;;;;5091454;28;20038;-66
2021/04/06 08:35:02;;;;;;;7.13;0.90;;;6.80;55.30;;;;;;5092268;28;20032;-66
2021/04/06 08:37:37;;;;;;;5.40;0.80;;;6.70;55.90;;;;;;5094978;28;20027;-66
2021/04/06 08:40:05;;;;;;;9.32;0.77;;;6.60;56.00;;;;;;5096184;28;20020;-66
2021/04/06 08:42:32;;;;;;;3.55;0.75;;;6.60;56.60;;;;;;5096296;28;20391;-66
2021/04/06 08:45:00;;;;;;;4.35;0.85;;;6.60;56.10;;;;;;5096090;28;20020;-67
2021/04/06 08:47:45;;;;;;;1.65;0.70;;;6.60;56.20;;;;;;5096001;28;20111;-66
2021/04/06 08:50:18;;;;;;;5.32;0.95;;;6.70;56.20;;;;;;5095816;28;20027;-66
2021/04/06 08:52:46;;;;;;;3.40;0.80;;;6.70;55.90;;;;;;5096104;28;20426;-66
2021/04/06 08:55:14;;;;;;;2.47;0.57;;;6.70;56.40;;;;;;5095663;28;20051;-66
2021/04/06 08:57:41;;;;;;;2.15;0.70;;;6.70;56.10;;;;;;5096052;28;20085;-66
2021/04/06 09:00:12;;;;;;;1.73;0.70;;;6.60;56.00;;;;;;5095688;28;20463;-66
2021/04/06 09:02:38;;;;;;;8.43;0.63;;;6.50;55.70;;;;;;5095848;28;20061;-67
2021/04/06 09:05:05;;;;;;;3.95;0.75;;;6.50;55.90;;;;;;5095090;28;20480;-66
2021/04/06 09:07:32;;;;;;;3.05;0.80;;;7.30;70.10;;;;;;5095679;28;20026;-66
2021/04/06 09:10:06;;;;;;;2.67;0.65;;;7.60;56.80;;;;;;5095872;28;20098;-67
2021/04/06 09:12:33;;;;;;;6.18;0.90;;;7.50;55.50;;;;;;5095663;28;20483;-66
2021/04/06 09:14:59;;;;;;;4.70;0.75;;;7.30;55.10;;;;;;5094957;28;20040;-65
2021/04/06 09:17:33;;;;;;;14.02;0.98;;;7.10;55.20;;;;;;5095690;28;20024;-66
2021/04/06 09:20:12;;;;;;;2.92;0.70;;;7.00;55.00;;;;;;5095554;28;20091;-65
2021/04/06 09:22:39;;;;;;;1.20;0.70;;;7.00;55.90;;;;;;5095394;28;20506;-65
2021/04/06 09:25:14;;;;;;;1.85;0.80;;;7.00;56.40;;;;;;5095410;28;20024;-65
2021/04/06 09:27:48;;;;;;;18.15;1.23;;;7.10;55.40;;;;;;5095085;28;20032;-65
2021/04/06 09:30:15;;;;;;;5.38;2.00;;;7.00;56.00;;;;;;5096323;28;20024;-65
2021/04/06 09:32:40;;;;;;;16.33;1.15;;;7.10;56.00;;;;;;5094979;28;20130;-65
2021/04/06 09:35:07;;;;;;;6.03;1.00;;;7.00;56.10;;;;;;5094892;28;20103;-65
2021/04/06 09:37:34;;;;;;;2.10;0.60;;;6.90;55.70;;;;;;5095072;28;20072;-65
2021/04/06 09:39:59;;;;;;;3.13;0.70;;;6.90;54.80;;;;;;5095115;28;20416;-65
2021/04/06 09:42:25;;;;;;;22.88;1.42;;;6.90;55.10;;;;;;5094806;28;20062;-65
2021/04/06 09:44:52;;;;;;;3.60;1.00;;;6.90;55.60;;;;;;5094895;28;20027;-65
2021/04/06 09:47:21;;;;;;;4.20;1.13;;;8.30;73.40;;;;;;5094653;28;20024;-65
2021/04/06 09:49:53;;;;;;;6.75;0.90;;;8.40;61.60;;;;;;5094728;28;20499;-65
2021/04/06 09:52:22;;;;;;;2.42;0.80;;;8.10;57.40;;;;;;5094650;28;20476;-67
2021/04/06 09:54:51;;;;;;;1.45;0.65;;;7.90;59.20;;;;;;5094982;28;20035;-65
2021/04/06 09:57:18;;;;;;;17.15;1.45;;;7.70;59.60;;;;;;5094803;28;20024;-63
2021/04/06 09:59:51;;;;;;;2.70;0.70;;;7.60;59.60;;;;;;5094341;28;20086;-65
2021/04/06 10:02:29;;;;;;;4.68;0.82;;;7.50;59.10;;;;;;5094361;28;20036;-65
2021/04/06 10:04:55;;;;;;;8.77;1.00;;;7.40;58.70;;;;;;5094602;28;20027;-65
2021/04/06 10:07:22;;;;;;;12.77;1.15;;;7.40;58.40;;;;;;5094425;28;20035;-64
2021/04/06 10:10:01;;;;;;;27.85;1.83;;;7.40;58.80;;;;;;5094257;28;20070;-65
2021/04/06 10:12:29;;;;;;;15.63;1.95;;;7.50;59.10;;;;;;5094002;28;20473;-65
2021/04/06 10:14:55;;;;;;;5.95;1.33;;;7.50;59.10;;;;;;5094029;28;20047;-65
2021/04/06 10:17:23;;;;;;;5.20;0.80;;;7.50;58.10;;;;;;5093982;28;20032;-65
2021/04/06 10:20:07;;;;;;;4.82;0.80;;;7.50;58.10;;;;;;5094120;28;20020;-65
2021/04/06 10:22:43;;;;;;;7.88;1.17;;;7.50;58.00;;;;;;5094435;28;20036;-65
2021/04/06 10:25:10;;;;;;;13.68;1.10;;;7.60;57.90;;;;;;5075865;28;20088;-65
2021/04/06 10:27:45;;;;;;;5.93;0.90;;;7.50;56.90;;;;;;5094203;28;20487;-63
2021/04/06 10:30:15;;;;;;;8.82;1.65;;;7.50;56.90;;;;;;5093573;28;20048;-63
2021/04/06 10:32:43;;;;;;;8.85;0.98;;;7.40;57.40;;;;;;5093732;28;20107;-64
2021/04/06 10:35:32;;;;;;;7.88;0.90;;;7.50;57.30;;;;;;5093779;28;20112;-64
2021/04/06 10:38:00;;;;;;;3.00;0.73;;;7.40;56.70;;;;;;5092042;28;20116;-64
2021/04/06 10:40:32;;;;;;;3.05;0.70;;;7.50;57.20;;;;;;5093410;28;20024;-63
2021/04/06 10:43:11;;;;;;;20.52;1.35;;;7.50;56.70;;;;;;5093294;28;20032;-63
2021/04/06 10:45:43;;;;;;;7.03;0.90;;;7.60;56.40;;;;;;5092219;28;20016;-64
2021/04/06 10:48:19;;;;;;;3.63;0.85;;;7.60;56.10;;;;;;5093061;28;20495;-66
2021/04/06 10:50:49;;;;;;;3.40;0.60;;;7.60;55.90;;;;;;5090486;28;20016;-66
2021/04/06 10:53:18;;;;;;;13.77;0.98;;;7.60;56.40;;;;;;5093502;28;20031;-68
2021/04/06 10:55:47;;;;;;;25.77;1.60;;;7.70;56.90;;;;;;5093830;28;20166;-68
2021/04/06 10:58:21;;;;;;;14.50;1.40;;;7.70;55.90;;;;;;5093454;28;20258;-68
2021/04/06 11:00:59;;;;;;;8.55;1.05;;;7.70;55.50;;;;;;5092917;28;20024;-66
2021/04/06 11:03:25;;;;;;;5.47;0.88;;;7.70;55.10;;;;;;5093549;28;20125;-66
2021/04/06 11:05:51;;;;;;;4.78;0.80;;;7.70;55.50;;;;;;5093230;28;20028;-66
2021/04/06 11:08:25;;;;;;;2.03;1.10;;;7.70;55.20;;;;;;5093199;28;20075;-67
2021/04/06 11:10:54;;;;;;;9.55;1.02;;;7.70;55.20;;;;;;5093412;28;20027;-68
2021/04/06 11:13:20;;;;;;;4.80;0.80;;;7.80;55.30;;;;;;5092880;28;20040;-68
2021/04/06 11:15:46;;;;;;;21.73;2.35;;;7.90;55.60;;;;;;5093398;28;20082;-68
2021/04/06 11:18:12;;;;;;;6.47;1.15;;;8.00;54.90;;;;;;5093001;28;20024;-68
2021/04/06 11:20:39;;;;;;;4.35;0.70;;;8.00;55.00;;;;;;5092821;28;20028;-68
2021/04/06 11:23:05;;;;;;;10.07;1.23;;;8.00;55.20;;;;;;5092899;28;20039;-69
2021/04/06 11:25:31;;;;;;;3.22;0.68;;;8.00;55.40;;;;;;5092780;28;20118;-68
2021/04/06 11:28:00;;;;;;;3.88;0.70;;;8.00;55.40;;;;;;5093199;28;20069;-68
2021/04/06 11:30:36;;;;;;;3.20;0.70;;;8.00;55.80;;;;;;5092615;28;20107;-68
2021/04/06 11:33:04;;;;;;;3.83;0.90;;;7.90;55.50;;;;;;5093127;28;20030;-68
2021/04/06 11:35:31;;;;;;;2.17;0.85;;;8.00;56.00;;;;;;5092635;28;20225;-68
2021/04/06 11:37:57;;;;;;;4.32;0.80;;;8.00;56.30;;;;;;5093065;28;20027;-68
2021/04/06 11:40:24;;;;;;;6.75;0.70;;;8.00;55.70;;;;;;5092520;28;20085;-68
2021/04/06 11:42:50;;;;;;;6.30;0.73;;;8.00;55.40;;;;;;5092648;28;20039;-67
2021/04/06 11:45:16;;;;;;;4.43;0.73;;;8.60;69.30;;;;;;5092496;28;20067;-67
2021/04/06 11:47:42;;;;;;;11.20;1.15;;;10.00;68.60;;;;;;5092652;28;20024;-67
2021/04/06 11:50:09;;;;;;;4.90;1.17;;;10.10;55.50;;;;;;5092702;28;20024;-68
2021/04/06 11:52:35;;;;;;;12.02;1.15;;;9.60;53.60;;;;;;5092406;28;20031;-68
2021/04/06 11:55:02;;;;;;;2.53;0.80;;;9.10;53.60;;;;;;5092778;28;20376;-68
2021/04/06 11:57:28;;;;;;;3.50;0.90;;;8.90;54.00;;;;;;5092286;28;20028;-68
2021/04/06 11:59:55;;;;;;;4.15;1.00;;;8.60;53.70;;;;;;5092466;28;20024;-67
2021/04/06 12:02:22;;;;;;;2.67;1.30;;;8.50;54.80;;;;;;5092239;28;20032;-68
2021/04/06 12:04:47;;;;;;;5.45;1.10;;;8.40;54.80;;;;;;5092515;28;20508;-68
2021/04/06 12:07:13;;;;;;;7.07;1.10;;;8.30;54.50;;;;;;5092269;28;20089;-68
2021/04/06 12:09:39;;;;;;;1.20;0.60;;;8.30;55.10;;;;;;5091980;28;20024;-68
2021/04/06 12:12:05;;;;;;;3.50;0.70;;;8.30;55.40;;;;;;5090978;28;20379;-68
2021/04/06 12:14:31;;;;;;;2.92;0.77;;;8.30;54.80;;;;;;5092060;28;20044;-68
2021/04/06 12:16:57;;;;;;;3.15;0.60;;;8.20;55.30;;;;;;5092369;28;20020;-68
2021/04/06 12:19:22;;;;;;;1.67;0.60;;;8.20;54.90;;;;;;5092347;28;20031;-67
2021/04/06 12:21:48;;;;;;;1.98;0.73;;;8.50;65.20;;;;;;5091466;28;20039;-68
2021/04/06 12:24:14;;;;;;;7.82;0.77;;;9.60;64.00;;;;;;5091232;28;20125;-67
2021/04/06 12:26:40;;;;;;;3.92;0.95;;;9.40;54.70;;;;;;5090713;28;20069;-68
2021/04/06 12:29:06;;;;;;;7.68;0.75;;;9.00;53.60;;;;;;5091488;28;20028;-70
2021/04/06 12:31:31;;;;;;;8.45;0.90;;;8.80;54.00;;;;;;5091883;28;20026;-68
2021/04/06 12:33:57;;;;;;;1.30;0.75;;;8.50;53.70;;;;;;5092034;28;20537;-67
2021/04/06 12:36:23;;;;;;;7.22;1.17;;;8.50;57.70;;;;;;5091859;28;20024;-68
2021/04/06 12:38:49;;;;;;;15.90;1.08;;;9.30;70.10;;;;;;5092149;28;20029;-69
2021/04/06 12:41:16;;;;;;;4.57;0.55;;;10.20;60.30;;;;;;5091249;28;20016;-69
2021/04/06 12:43:42;;;;;;;4.90;0.85;;;9.80;53.20;;;;;;5091958;28;20043;-68
2021/04/06 12:46:07;;;;;;;2.83;0.70;;;9.30;52.60;;;;;;5092109;28;20032;-69
2021/04/06 12:48:33;;;;;;;5.05;0.57;;;8.80;52.50;;;;;;5092064;28;20024;-69
2021/04/06 12:50:59;;;;;;;1.38;0.52;;;8.60;53.40;;;;;;5092048;28;20410;-69
2021/04/06 12:53:25;;;;;;;1.42;0.50;;;8.40;53.60;;;;;;5091808;28;20052;-69
2021/04/06 12:55:50;;;;;;;2.55;0.50;;;8.40;53.20;;;;;;5091743;28;20036;-69
2021/04/06 12:58:16;;;;;;;0.80;0.50;;;8.20;53.20;;;;;;5091997;28;20023;-69
2021/04/06 13:00:42;;;;;;;15.35;0.95;;;8.20;53.50;;;;;;5091615;28;20028;-69
2021/04/06 13:03:08;;;;;;;4.35;0.70;;;8.20;53.70;;;;;;5091667;28;20036;-69
2021/04/06 13:05:34;;;;;;;4.97;0.90;;;8.20;53.70;;;;;;5091621;28;20073;-69
2021/04/06 13:07:59;;;;;;;5.63;1.10;;;8.10;53.10;;;;;;5073566;28;20024;-69
2021/04/06 13:10:25;;;;;;;3.33;0.60;;;8.00;53.10;;;;;;5091517;28;20495;-69
2021/04/06 13:12:53;;;;;;;4.13;0.68;;;8.00;53.10;;;;;;5091640;28;20035;-69
2021/04/06 13:15:19;;;;;;;11.50;1.00;;;7.90;53.40;;;;;;5091792;28;20093;-69
2021/04/06 13:17:45;;;;;;;1.00;0.55;;;8.00;53.30;;;;;;5091592;28;20103;-69
2021/04/06 13:20:13;;;;;;;5.68;0.70;;;8.00;53.40;;;;;;5091532;28;20020;-69
2021/04/06 13:22:40;;;;;;;6.57;0.75;;;8.00;52.90;;;;;;5092876;28;20086;-69
2021/04/06 13:25:07;;;;;;;7.45;0.60;;;7.90;52.90;;;;;;5095402;28;20020;-69
2021/04/06 13:27:33;;;;;;;2.67;0.60;;;7.80;53.20;;;;;;5095208;28;20024;-69
2021/04/06 13:29:59;;;;;;;5.68;0.90;;;7.80;53.10;;;;;;5095303;28;20494;-69
2021/04/06 13:32:25;;;;;;;55.33;3.10;;;7.80;53.40;;;;;;5094986;28;20028;-69
2021/04/06 13:34:50;;;;;;;15.25;0.93;;;7.70;53.20;;;;;;5095234;28;20028;-69
2021/04/06 13:37:16;;;;;;;7.93;0.95;;;8.50;64.00;;;;;;5094603;28;20046;-69
2021/04/06 13:39:42;;;;;;;7.22;1.35;;;8.90;57.30;;;;;;5094991;28;20499;-68
2021/04/06 13:42:08;;;;;;;5.15;0.75;;;8.80;54.20;;;;;;5094880;28;20059;-69
2021/04/06 13:44:36;;;;;;;2.15;0.70;;;8.50;52.90;;;;;;5095064;28;20032;-71
2021/04/06 13:47:03;;;;;;;2.33;0.70;;;8.30;52.80;;;;;;5094420;28;20027;-69
2021/04/06 13:49:28;;;;;;;4.43;0.95;;;8.10;53.10;;;;;;5094594;28;20031;-70
2021/04/06 13:51:54;;;;;;;3.67;0.90;;;7.90;53.50;;;;;;5094305;28;20028;-69
2021/04/06 13:54:20;;;;;;;13.80;1.05;;;7.90;53.80;;;;;;5094025;28;20162;-69
2021/04/06 13:56:46;;;;;;;3.70;0.60;;;7.80;53.70;;;;;;5094207;28;20024;-69
2021/04/06 13:59:11;;;;;;;9.52;0.93;;;7.70;53.60;;;;;;5094068;28;20115;-69
2021/04/06 14:01:37;;;;;;;9.50;0.63;;;7.60;53.70;;;;;;5093853;28;20110;-69
2021/04/06 14:04:03;;;;;;;2.47;0.80;;;7.60;53.60;;;;;;5094203;28;20157;-69
2021/04/06 14:06:29;;;;;;;3.83;0.70;;;7.60;54.00;;;;;;5093788;28;20372;-69
2021/04/06 14:08:55;;;;;;;11.15;0.70;;;7.60;54.20;;;;;;5093970;28;20057;-69
2021/04/06 14:11:21;;;;;;;5.03;0.70;;;7.60;54.00;;;;;;5093686;28;20499;-69
2021/04/06 14:13:46;;;;;;;5.25;0.77;;;7.60;54.30;;;;;;5093946;28;20043;-69
2021/04/06 14:16:12;;;;;;;2.30;0.70;;;7.60;54.70;;;;;;5095377;28;20491;-69
2021/04/06 14:18:39;;;;;;;2.15;0.70;;;7.50;54.10;;;;;;5094561;28;20016;-68
2021/04/06 14:21:08;;;;;;;3.42;0.60;;;7.50;54.00;;;;;;5093636;28;20024;-69
2021/04/06 14:23:34;;;;;;;7.13;1.00;;;7.50;54.10;;;;;;5090922;28;20032;-69
2021/04/06 14:26:03;;;;;;;4.38;1.45;;;7.50;54.20;;;;;;5093635;28;20081;-69
2021/04/06 14:28:29;;;;;;;5.43;0.95;;;7.50;54.40;;;;;;5093478;28;20077;-69
2021/04/06 14:30:56;;;;;;;5.22;0.80;;;7.50;54.60;;;;;;5093849;28;20017;-69
2021/04/06 14:33:23;;;;;;;2.63;0.73;;;7.50;54.60;;;;;;5093055;28;20035;-69
2021/04/06 14:35:51;;;;;;;2.40;0.55;;;7.60;54.40;;;;;;5092983;28;20016;-70
2021/04/06 14:38:18;;;;;;;6.30;0.95;;;7.60;54.20;;;;;;5093683;28;20031;-69
2021/04/06 14:40:44;;;;;;;18.00;2.05;;;7.50;54.00;;;;;;5093390;28;20103;-70
2021/04/06 14:43:19;;;;;;;14.00;1.42;;;7.50;54.30;;;;;;5093282;28;20032;-69
2021/04/06 14:45:51;;;;;;;19.92;1.65;;;7.60;54.70;;;;;;5093438;28;20119;-69
2021/04/06 14:48:17;;;;;;;34.55;3.65;;;7.70;54.30;;;;;;5091107;28;20081;-69
2021/04/06 14:50:44;;;;;;;12.23;1.27;;;7.70;54.30;;;;;;5093287;28;20023;-69
2021/04/06 14:53:10;;;;;;;4.43;0.88;;;7.70;53.90;;;;;;5093369;28;20084;-69
2021/04/06 14:55:37;;;;;;;15.02;1.70;;;7.60;54.00;;;;;;5093177;28;20376;-66
2021/04/06 14:58:04;;;;;;;14.73;1.20;;;7.60;54.40;;;;;;5093106;28;20031;-69
2021/04/06 15:00:30;;;;;;;10.43;1.70;;;7.60;54.10;;;;;;5092983;28;20020;-67
2021/04/06 15:02:57;;;;;;;6.03;0.63;;;7.60;54.30;;;;;;5093299;28;20060;-68
2021/04/06 15:05:24;;;;;;;11.98;0.95;;;7.60;54.00;;;;;;5093491;28;20078;-67
2021/04/06 15:07:52;;;;;;;7.72;2.03;;;7.60;54.30;;;;;;5093359;28;20101;-68
2021/04/06 15:10:18;;;;;;;11.00;1.40;;;7.60;54.30;;;;;;5093036;28;20437;-68
2021/04/06 15:12:46;;;;;;;4.55;1.50;;;7.60;54.30;;;;;;5092883;28;20020;-68
2021/04/06 15:15:12;;;;;;;13.20;2.00;;;7.60;54.40;;;;;;5092825;28;20047;-68
2021/04/06 15:17:38;;;;;;;15.60;1.00;;;7.60;54.90;;;;;;5092406;28;20487;-68
2021/04/06 15:20:08;;;;;;;6.25;1.00;;;7.60;54.90;;;;;;5092698;28;20030;-68
2021/04/06 15:22:38;;;;;;;7.22;1.90;;;7.50;55.00;;;;;;5092499;28;20065;-73
2021/04/06 15:25:08;;;;;;;18.73;2.42;;;7.50;55.50;;;;;;5092662;28;20048;-72
2021/04/06 15:27:39;;;;;;;17.73;2.13;;;7.50;54.90;;;;;;5092305;28;20095;-71
2021/04/06 15:30:06;;;;;;;14.35;1.42;;;7.50;54.50;;;;;;5092516;28;20099;-72
2021/04/06 15:32:32;;;;;;;10.57;1.08;;;7.40;54.10;;;;;;5092333;28;20111;-71
2021/04/06 15:34:58;;;;;;;9.65;0.90;;;7.40;54.30;;;;;;5092370;28;20120;-76
2021/04/06 15:37:32;;;;;;;7.82;0.82;;;7.40;54.00;;;;;;5092331;28;20077;-76
2021/04/06 15:39:59;;;;;;;11.88;1.30;;;7.40;54.60;;;;;;5092580;28;20032;-76
2021/04/06 15:42:25;;;;;;;18.98;2.15;;;7.50;54.70;;;;;;5092449;28;20028;-77
2021/04/06 15:44:56;;;;;;;5.07;0.75;;;7.40;54.90;;;;;;5092629;28;20111;-77
2021/04/06 15:47:23;;;;;;;17.90;1.20;;;7.40;54.90;;;;;;5092683;28;20447;-77
2021/04/06 15:49:49;;;;;;;8.52;0.82;;;7.40;55.30;;;;;;5092368;28;20533;-73
2021/04/06 15:52:35;;;;;;;3.05;0.77;;;7.40;55.30;;;;;;5092532;28;20024;-73
2021/04/06 15:55:02;;;;;;;10.05;0.90;;;7.30;55.90;;;;;;5092737;28;20028;-73
2021/04/06 15:57:29;;;;;;;3.33;0.70;;;7.30;56.00;;;;;;5092207;28;20024;-73
2021/04/06 15:59:55;;;;;;;3.20;1.13;;;7.20;55.70;;;;;;5092442;28;20024;-73
2021/04/06 16:02:21;;;;;;;17.00;1.27;;;7.20;56.00;;;;;;5092258;28;20040;-73
2021/04/06 16:04:47;;;;;;;12.60;1.33;;;7.20;56.50;;;;;;5092599;28;20031;-73
2021/04/06 16:07:13;;;;;;;23.63;1.80;;;7.20;56.10;;;;;;5092522;28;20023;-72
2021/04/06 16:09:40;;;;;;;12.82;1.30;;;7.40;58.50;;;;;;5092236;28;20379;-72
2021/04/06 16:12:07;;;;;;;10.02;1.10;;;7.30;57.20;;;;;;5092317;28;20028;-74
2021/04/06 16:14:33;;;;;;;18.30;1.60;;;7.10;57.10;;;;;;5073298;28;20032;-73
2021/04/06 16:17:00;;;;;;;13.40;1.65;;;6.90;57.60;;;;;;5091931;28;20030;-78
2021/04/06 16:19:29;;;;;;;11.75;0.90;;;6.80;57.90;;;;;;5092390;28;20020;-82
2021/04/06 16:21:56;;;;;;;19.92;1.50;;;6.80;58.30;;;;;;5092438;28;20031;-81
2021/04/06 16:24:23;;;;;;;16.90;1.50;;;6.70;58.30;;;;;;5092206;28;20028;-81
2021/04/06 16:26:49;;;;;;;19.05;1.65;;;6.60;58.50;;;;;;5092336;28;20024;-81
2021/04/06 16:29:16;;;;;;;6.40;1.27;;;6.50;58.90;;;;;;5092170;28;20065;-81
2021/04/06 16:31:42;;;;;;;9.07;1.15;;;6.50;59.20;;;;;;5091856;28;20484;-80
2021/04/06 16:34:08;;;;;;;8.10;1.27;;;6.40;59.10;;;;;;5092479;28;20062;-81
2021/04/06 16:36:34;;;;;;;17.83;1.40;;;6.30;59.50;;;;;;5091886;28;20475;-76
2021/04/06 16:39:00;;;;;;;21.02;1.40;;;6.20;59.80;;;;;;5092227;28;20028;-76
2021/04/06 16:41:27;;;;;;;21.38;1.58;;;6.10;60.00;;;;;;5091655;28;20028;-76
2021/04/06 16:43:53;;;;;;;10.40;1.70;;;6.00;61.00;;;;;;5091852;28;20036;-76
2021/04/06 16:46:19;;;;;;;15.25;1.58;;;6.00;60.90;;;;;;5091828;28;20024;-77
2021/04/06 16:48:45;;;;;;;16.52;1.42;;;6.00;61.50;;;;;;5091624;28;20052;-77
2021/04/06 16:51:12;;;;;;;17.10;1.65;;;6.00;61.40;;;;;;5092109;28;20024;-76
2021/04/06 16:53:41;;;;;;;18.15;1.27;;;5.90;61.70;;;;;;5091582;28;20032;-77
2021/04/06 16:56:12;;;;;;;9.60;1.30;;;5.90;62.20;;;;;;5091821;28;20103;-76
2021/04/06 16:58:39;;;;;;;19.27;1.77;;;5.90;62.60;;;;;;5094570;28;20031;-77
2021/04/06 17:01:06;;;;;;;24.05;1.60;;;5.90;63.10;;;;;;5096437;28;20045;-77
2021/04/06 17:03:31;;;;;;;5.35;1.05;;;5.90;63.30;;;;;;5099102;28;20032;-76
2021/04/06 17:05:58;;;;;;;10.48;1.10;;;5.80;63.40;;;;;;5096990;28;20479;-76
2021/04/06 17:08:24;;;;;;;18.80;1.67;;;5.80;63.90;;;;;;5095675;28;20506;-78
2021/04/06 17:10:52;;;;;;;8.20;1.00;;;6.10;66.20;;;;;;5095833;28;20074;-70
2021/04/06 17:13:19;;;;;;;11.02;1.55;;;6.10;64.20;;;;;;5095385;28;20574;-78